Time;durP1;ratioP1;P1;durP2;ratioP2;P2;SDS_P1;SDS_P2;PMS_P1;PMS_P2;Temp;Humidity;BMP_temperature;BMP_pressure;BME280_temperature;BME280_humidity;BME280_pressure;Samples;Min_cycle;Max_cycle;Signal;HPM_P1;HPM_P2
2022/03/13 00:02:21;;;;;;;20.48;13.13;;;8.60;96.80;;;;;;4994575;28;20129;-77
2022/03/13 00:04:50;;;;;;;20.25;12.68;;;8.40;97.30;;;;;;5013137;28;20509;-77
2022/03/13 00:07:18;;;;;;;20.70;12.73;;;8.60;97.20;;;;;;5012196;28;20046;-76
2022/03/13 00:09:47;;;;;;;18.70;12.73;;;8.50;97.00;;;;;;5009823;28;20514;-76
2022/03/13 00:12:14;;;;;;;17.20;12.35;;;8.50;97.00;;;;;;4993402;28;20038;-76
2022/03/13 00:14:42;;;;;;;18.15;12.93;;;8.40;97.10;;;;;;4993224;28;20483;-76
2022/03/13 00:17:08;;;;;;;19.23;12.57;;;8.40;97.50;;;;;;4993589;28;20451;-76
2022/03/13 00:19:34;;;;;;;18.85;11.95;;;8.40;97.40;;;;;;5011736;28;20516;-77
2022/03/13 00:21:59;;;;;;;18.00;12.52;;;8.30;97.50;;;;;;5029234;28;20041;-76
2022/03/13 00:24:25;;;;;;;18.45;12.93;;;8.30;97.70;;;;;;5011844;28;20038;-76
2022/03/13 00:26:52;;;;;;;18.92;13.48;;;8.30;97.70;;;;;;4996569;28;20495;-77
2022/03/13 00:29:21;;;;;;;20.25;13.90;;;8.30;97.50;;;;;;5012019;28;20082;-77
2022/03/13 00:31:46;;;;;;;18.92;12.65;;;8.30;97.40;;;;;;5012970;28;20402;-76
2022/03/13 00:34:13;;;;;;;19.48;12.95;;;8.30;97.60;;;;;;4995906;28;20037;-76
2022/03/13 00:36:38;;;;;;;18.80;12.50;;;8.30;97.90;;;;;;4995472;28;20038;-76
2022/03/13 00:39:05;;;;;;;18.50;12.77;;;8.30;98.00;;;;;;5027917;28;20099;-76
2022/03/13 00:41:30;;;;;;;19.33;12.52;;;8.20;97.90;;;;;;5029068;28;20172;-76
2022/03/13 00:43:56;;;;;;;18.23;12.10;;;8.20;98.10;;;;;;4994684;28;20500;-77
2022/03/13 00:46:22;;;;;;;18.10;12.25;;;8.20;98.20;;;;;;5012656;28;20065;-76
2022/03/13 00:48:47;;;;;;;19.20;13.02;;;8.20;98.50;;;;;;5011457;28;20049;-76
2022/03/13 00:51:13;;;;;;;17.35;12.30;;;8.20;98.10;;;;;;5007135;28;20236;-76
2022/03/13 00:53:41;;;;;;;18.35;12.80;;;8.10;98.50;;;;;;4995382;28;20041;-76
2022/03/13 00:56:07;;;;;;;18.33;12.55;;;8.20;98.30;;;;;;5027822;28;20038;-76
2022/03/13 00:58:32;;;;;;;17.73;12.02;;;8.20;98.20;;;;;;4995634;28;20056;-77
2022/03/13 01:00:59;;;;;;;17.42;12.48;;;8.30;97.90;;;;;;4995308;28;20044;-77
2022/03/13 01:03:31;;;;;;;18.52;13.10;;;8.20;98.30;;;;;;5010468;28;20084;-77
2022/03/13 01:05:58;;;;;;;18.70;13.35;;;8.20;99.00;;;;;;4993902;28;20049;-76
2022/03/13 01:08:24;;;;;;;18.50;12.57;;;8.10;99.10;;;;;;4992769;28;20392;-76
2022/03/13 01:10:50;;;;;;;18.60;12.73;;;8.10;99.10;;;;;;4994980;28;20033;-76
2022/03/13 01:13:15;;;;;;;18.13;13.00;;;8.10;98.80;;;;;;5011242;28;20053;-76
2022/03/13 01:15:45;;;;;;;18.67;12.88;;;8.00;99.10;;;;;;5011092;28;20042;-76
2022/03/13 01:18:10;;;;;;;19.92;12.73;;;8.10;99.10;;;;;;5012343;28;20383;-76
2022/03/13 01:20:36;;;;;;;17.00;11.73;;;8.10;99.20;;;;;;4994918;28;20042;-76
2022/03/13 01:23:01;;;;;;;18.85;12.90;;;8.10;99.60;;;;;;4994736;28;20074;-77
2022/03/13 01:25:27;;;;;;;22.48;13.48;;;8.10;99.10;;;;;;5011069;28;20049;-76
2022/03/13 01:27:53;;;;;;;17.17;12.25;;;8.10;99.20;;;;;;4993459;28;20046;-76
2022/03/13 01:30:19;;;;;;;19.20;13.60;;;8.00;99.30;;;;;;4994279;28;20037;-77
2022/03/13 01:32:52;;;;;;;20.02;13.88;;;8.10;99.90;;;;;;4994510;28;20391;-76
2022/03/13 01:35:23;;;;;;;18.15;12.73;;;8.10;99.10;;;;;;5012009;28;20049;-76
2022/03/13 01:37:51;;;;;;;20.63;13.50;;;8.10;99.60;;;;;;5009483;28;20069;-77
2022/03/13 01:40:23;;;;;;;18.90;12.93;;;8.10;99.30;;;;;;4995554;28;20054;-76
2022/03/13 01:42:50;;;;;;;19.10;12.32;;;8.10;99.50;;;;;;4994814;28;20402;-77
2022/03/13 01:45:18;;;;;;;20.13;13.25;;;8.00;99.50;;;;;;4995825;28;20379;-77
2022/03/13 01:47:45;;;;;;;20.15;13.65;;;8.00;99.70;;;;;;5011241;28;20467;-76
2022/03/13 01:50:13;;;;;;;19.25;12.63;;;7.90;99.90;;;;;;4999063;28;20046;-77
2022/03/13 01:52:44;;;;;;;18.58;13.35;;;8.00;99.90;;;;;;5010520;28;20041;-76
2022/03/13 01:55:10;;;;;;;20.60;13.75;;;8.00;99.90;;;;;;4992540;28;20073;-76
2022/03/13 01:57:37;;;;;;;17.55;12.63;;;8.00;99.80;;;;;;5008963;28;20487;-77
2022/03/13 02:00:06;;;;;;;17.90;12.68;;;8.10;99.90;;;;;;4995386;28;20090;-76
2022/03/13 02:02:33;;;;;;;18.67;12.82;;;8.10;99.80;;;;;;4993616;28;20034;-76
2022/03/13 02:04:59;;;;;;;19.08;12.73;;;7.90;99.90;;;;;;4994777;28;20042;-76
2022/03/13 02:07:28;;;;;;;20.15;13.38;;;8.00;99.90;;;;;;5004854;28;20454;-76
2022/03/13 02:09:54;;;;;;;19.83;12.90;;;8.00;99.90;;;;;;4992319;28;20038;-76
2022/03/13 02:12:23;;;;;;;20.27;14.63;;;8.00;99.90;;;;;;5009504;28;20052;-77
2022/03/13 02:14:50;;;;;;;21.77;12.63;;;7.90;99.90;;;;;;5010033;28;20404;-76
2022/03/13 02:17:33;;;;;;;19.10;13.15;;;8.00;99.90;;;;;;5012179;28;20046;-76
2022/03/13 02:19:58;;;;;;;24.13;13.52;;;8.00;99.90;;;;;;5031740;28;20033;-76
2022/03/13 02:22:25;;;;;;;17.40;12.82;;;8.00;99.90;;;;;;5013915;28;20128;-76
2022/03/13 02:24:51;;;;;;;19.10;13.88;;;8.10;99.90;;;;;;4995226;28;20177;-77
2022/03/13 02:27:23;;;;;;;18.48;13.05;;;8.10;99.90;;;;;;5013326;28;20049;-76
2022/03/13 02:29:48;;;;;;;18.70;12.43;;;8.20;99.90;;;;;;4998665;28;20041;-76
2022/03/13 02:32:14;;;;;;;19.80;13.13;;;8.20;99.90;;;;;;5014333;28;20041;-77
2022/03/13 02:34:39;;;;;;;17.13;11.75;;;8.20;99.90;;;;;;5014028;28;20044;-76
2022/03/13 02:37:18;;;;;;;19.80;13.00;;;8.30;99.80;;;;;;5012152;28;20115;-77
2022/03/13 02:39:44;;;;;;;18.63;13.60;;;8.40;99.90;;;;;;4994983;28;20046;-77
2022/03/13 02:42:10;;;;;;;18.13;12.27;;;8.40;99.60;;;;;;4994377;28;20050;-77
2022/03/13 02:44:36;;;;;;;19.10;12.88;;;8.40;99.90;;;;;;4997634;28;20034;-77
2022/03/13 02:47:04;;;;;;;18.10;11.98;;;8.40;99.80;;;;;;5013511;28;20041;-77
2022/03/13 02:49:31;;;;;;;20.08;13.25;;;8.40;99.90;;;;;;4998292;28;20038;-77
2022/03/13 02:52:05;;;;;;;17.77;12.35;;;8.40;99.70;;;;;;4997525;28;20057;-76
2022/03/13 02:54:32;;;;;;;17.08;12.10;;;8.40;99.90;;;;;;5030111;28;20084;-77
2022/03/13 02:56:58;;;;;;;18.42;12.52;;;8.50;99.60;;;;;;5030191;28;20450;-77
2022/03/13 02:59:24;;;;;;;20.85;13.30;;;8.40;99.80;;;;;;5031048;28;20048;-76
2022/03/13 03:01:50;;;;;;;18.77;12.32;;;8.40;99.90;;;;;;5029522;28;20038;-77
2022/03/13 03:04:17;;;;;;;18.33;12.38;;;8.40;99.90;;;;;;4997315;28;20494;-76
2022/03/13 03:06:54;;;;;;;20.95;13.90;;;8.40;99.90;;;;;;5029382;28;20038;-77
2022/03/13 03:09:20;;;;;;;18.35;12.48;;;8.40;99.90;;;;;;4996509;28;20038;-77
2022/03/13 03:11:47;;;;;;;18.60;13.60;;;8.30;99.90;;;;;;4997215;28;20387;-77
2022/03/13 03:14:12;;;;;;;18.60;13.43;;;8.30;99.90;;;;;;5013111;28;20121;-78
2022/03/13 03:16:38;;;;;;;18.35;13.05;;;8.30;99.90;;;;;;5029554;28;20561;-77
2022/03/13 03:19:04;;;;;;;20.20;13.18;;;8.30;99.90;;;;;;5028788;28;20045;-77
2022/03/13 03:21:30;;;;;;;17.73;12.70;;;8.40;99.90;;;;;;5014004;28;20160;-77
2022/03/13 03:23:56;;;;;;;18.75;12.57;;;8.30;99.90;;;;;;4995506;28;20494;-77
2022/03/13 03:26:21;;;;;;;18.48;12.75;;;8.20;99.90;;;;;;5013106;28;20041;-77
2022/03/13 03:28:47;;;;;;;21.83;13.88;;;8.10;99.90;;;;;;4996313;28;20033;-77
2022/03/13 03:31:13;;;;;;;19.02;14.30;;;8.00;99.90;;;;;;5014080;28;20069;-76
2022/03/13 03:33:38;;;;;;;19.55;13.23;;;7.90;99.90;;;;;;5029171;28;20041;-76
2022/03/13 03:36:04;;;;;;;22.25;13.68;;;7.90;99.90;;;;;;5013763;28;20050;-76
2022/03/13 03:38:29;;;;;;;19.20;14.18;;;7.90;99.90;;;;;;5012006;28;20443;-76
2022/03/13 03:40:55;;;;;;;19.10;13.68;;;7.80;99.90;;;;;;5013583;28;20077;-76
2022/03/13 03:43:21;;;;;;;19.75;13.43;;;7.70;99.90;;;;;;4995855;28;20391;-76
2022/03/13 03:45:46;;;;;;;19.08;13.55;;;7.70;99.90;;;;;;5013811;28;20030;-76
2022/03/13 03:48:12;;;;;;;19.00;13.63;;;7.70;99.90;;;;;;5012666;28;20030;-76
2022/03/13 03:50:38;;;;;;;18.88;13.82;;;7.60;99.90;;;;;;4997166;28;20038;-77
2022/03/13 03:53:03;;;;;;;21.98;14.30;;;7.60;99.90;;;;;;5028379;28;20383;-76
2022/03/13 03:55:29;;;;;;;18.63;12.82;;;7.50;99.90;;;;;;5013306;28;20045;-77
2022/03/13 03:57:55;;;;;;;21.42;14.60;;;7.50;99.90;;;;;;4996369;28;20042;-77
2022/03/13 04:00:23;;;;;;;20.92;15.00;;;7.40;99.90;;;;;;4996816;28;20049;-77
2022/03/13 04:02:49;;;;;;;20.00;14.23;;;7.40;99.90;;;;;;5012133;28;20096;-77
2022/03/13 04:05:15;;;;;;;19.42;14.07;;;7.40;99.90;;;;;;5029700;28;20515;-76
2022/03/13 04:07:40;;;;;;;20.67;13.77;;;7.40;99.90;;;;;;4994919;28;21569;-77
2022/03/13 04:10:08;;;;;;;18.55;12.93;;;7.50;99.90;;;;;;5029737;28;20121;-76
2022/03/13 04:12:34;;;;;;;20.33;13.90;;;7.50;99.90;;;;;;5012055;28;20210;-76
2022/03/13 04:15:04;;;;;;;19.95;13.13;;;7.40;99.90;;;;;;5029473;28;20034;-76
2022/03/13 04:17:30;;;;;;;18.63;13.10;;;7.40;99.90;;;;;;5028446;28;20042;-77
2022/03/13 04:19:55;;;;;;;21.33;13.70;;;7.30;99.90;;;;;;5029355;28;20453;-77
2022/03/13 04:22:21;;;;;;;19.58;14.30;;;7.20;99.90;;;;;;4996121;28;20128;-76
2022/03/13 04:24:47;;;;;;;19.42;14.10;;;7.20;99.90;;;;;;5009633;28;20121;-76
2022/03/13 04:27:13;;;;;;;19.45;13.95;;;7.10;99.90;;;;;;5029547;28;20056;-76
2022/03/13 04:29:39;;;;;;;19.80;13.75;;;7.20;99.90;;;;;;4995496;28;20042;-76
2022/03/13 04:32:06;;;;;;;17.90;13.18;;;7.20;99.90;;;;;;5013042;28;20557;-76
2022/03/13 04:34:32;;;;;;;20.45;14.00;;;7.20;99.90;;;;;;4992567;28;20038;-76
2022/03/13 04:37:00;;;;;;;19.00;13.45;;;7.10;99.90;;;;;;5011189;28;20046;-76
2022/03/13 04:39:26;;;;;;;18.95;13.40;;;7.10;99.90;;;;;;5011418;28;20053;-76
2022/03/13 04:41:51;;;;;;;19.50;13.52;;;7.10;99.90;;;;;;4996332;28;20038;-76
2022/03/13 04:44:18;;;;;;;18.50;13.18;;;7.00;99.90;;;;;;5011460;28;20046;-76
2022/03/13 04:46:43;;;;;;;18.83;13.15;;;7.00;99.90;;;;;;5012534;28;20042;-76
2022/03/13 04:49:09;;;;;;;18.33;12.82;;;7.00;99.90;;;;;;5011270;28;20053;-76
2022/03/13 04:51:36;;;;;;;19.23;12.60;;;7.00;99.90;;;;;;5012672;28;20096;-76
2022/03/13 04:54:02;;;;;;;19.45;13.10;;;7.10;99.90;;;;;;4995128;28;20041;-77
2022/03/13 04:56:28;;;;;;;19.52;12.50;;;7.20;99.90;;;;;;4993665;28;20048;-77
2022/03/13 04:58:53;;;;;;;18.00;12.27;;;7.30;99.50;;;;;;5011322;28;20491;-76
2022/03/13 05:01:21;;;;;;;17.77;12.60;;;7.20;99.50;;;;;;5027557;28;20421;-76
2022/03/13 05:03:47;;;;;;;17.60;12.32;;;7.20;99.70;;;;;;5028635;28;20500;-77
2022/03/13 05:06:12;;;;;;;17.55;12.70;;;7.20;99.40;;;;;;5011448;28;20069;-77
2022/03/13 05:08:40;;;;;;;17.58;12.43;;;7.30;99.10;;;;;;5026990;28;20041;-77
2022/03/13 05:11:07;;;;;;;17.08;11.38;;;7.20;99.20;;;;;;5027709;28;20046;-76
2022/03/13 05:13:35;;;;;;;18.20;13.00;;;7.20;99.30;;;;;;5012254;28;20495;-76
2022/03/13 05:16:01;;;;;;;18.77;12.13;;;7.20;99.30;;;;;;5011263;28;20506;-77
2022/03/13 05:18:27;;;;;;;19.55;12.27;;;7.20;99.10;;;;;;4995054;28;20041;-76
2022/03/13 05:20:53;;;;;;;17.55;12.48;;;7.30;98.70;;;;;;4995701;28;20046;-76
2022/03/13 05:23:18;;;;;;;17.70;12.27;;;7.20;99.20;;;;;;5010977;28;20038;-77
2022/03/13 05:25:44;;;;;;;19.55;12.55;;;6.90;99.50;;;;;;4995989;28;20041;-77
2022/03/13 05:28:10;;;;;;;19.48;12.98;;;6.90;99.50;;;;;;4992944;28;20069;-76
2022/03/13 05:30:37;;;;;;;19.63;13.23;;;6.90;99.60;;;;;;5028394;28;20491;-76
2022/03/13 05:33:06;;;;;;;18.77;13.20;;;6.80;99.80;;;;;;4992533;28;20132;-76
2022/03/13 05:35:33;;;;;;;18.80;12.05;;;6.80;99.90;;;;;;4983612;28;20066;-76
2022/03/13 05:37:59;;;;;;;18.73;12.45;;;6.80;99.80;;;;;;4976709;28;20407;-77
2022/03/13 05:40:25;;;;;;;17.65;12.73;;;6.70;99.90;;;;;;4992887;28;20157;-76
2022/03/13 05:42:55;;;;;;;17.73;12.43;;;6.60;99.90;;;;;;4991095;28;20048;-76
2022/03/13 05:45:22;;;;;;;18.67;12.75;;;6.60;99.90;;;;;;5011872;28;20038;-76
2022/03/13 05:47:55;;;;;;;19.73;13.02;;;6.50;99.90;;;;;;4983216;28;20038;-76
2022/03/13 05:50:23;;;;;;;18.17;12.25;;;6.50;99.90;;;;;;5026695;28;20453;-77
2022/03/13 05:52:49;;;;;;;19.00;12.82;;;6.40;99.90;;;;;;4999001;28;20406;-76
2022/03/13 05:55:16;;;;;;;19.10;13.02;;;6.50;99.90;;;;;;5015184;28;20049;-76
2022/03/13 05:57:42;;;;;;;18.95;12.20;;;6.50;99.90;;;;;;5015495;28;20042;-77
2022/03/13 06:00:12;;;;;;;18.83;12.35;;;6.50;99.90;;;;;;4996486;28;20037;-77
2022/03/13 06:02:40;;;;;;;18.42;12.05;;;6.50;99.90;;;;;;5005101;28;20463;-77
2022/03/13 06:05:07;;;;;;;18.92;12.52;;;6.50;99.90;;;;;;5009914;28;20573;-77
2022/03/13 06:07:34;;;;;;;18.10;12.45;;;6.60;99.90;;;;;;4989947;28;20073;-77
2022/03/13 06:10:03;;;;;;;18.38;11.90;;;6.70;99.70;;;;;;4993403;28;20069;-77
2022/03/13 06:12:30;;;;;;;19.42;12.55;;;6.70;99.70;;;;;;4973249;28;20490;-77
2022/03/13 06:14:56;;;;;;;18.35;12.77;;;6.70;99.60;;;;;;4977355;28;20053;-77
2022/03/13 06:17:22;;;;;;;18.35;11.98;;;6.70;99.80;;;;;;4991548;28;20046;-77
2022/03/13 06:19:48;;;;;;;17.63;12.70;;;6.70;99.90;;;;;;4984570;28;20048;-77
2022/03/13 06:22:13;;;;;;;18.27;12.40;;;6.60;99.90;;;;;;4994334;28;20050;-77
2022/03/13 06:24:40;;;;;;;17.60;12.10;;;6.60;99.90;;;;;;4993777;28;20034;-78
2022/03/13 06:27:06;;;;;;;19.08;13.00;;;6.60;99.90;;;;;;4975738;28;20038;-77
2022/03/13 06:29:32;;;;;;;17.27;12.27;;;6.70;99.80;;;;;;4989948;28;20479;-77
2022/03/13 06:31:58;;;;;;;18.52;12.43;;;6.70;99.90;;;;;;4994568;28;20181;-76
2022/03/13 06:34:24;;;;;;;17.27;11.63;;;6.70;99.80;;;;;;5025959;28;20096;-77
2022/03/13 06:36:50;;;;;;;17.30;12.02;;;6.80;99.00;;;;;;5030524;28;20037;-77
2022/03/13 06:39:15;;;;;;;18.75;12.80;;;6.90;99.20;;;;;;4997821;28;20058;-76
2022/03/13 06:41:41;;;;;;;17.65;11.48;;;6.80;99.00;;;;;;4986134;28;20050;-77
2022/03/13 06:44:07;;;;;;;18.15;11.27;;;6.80;99.10;;;;;;4988412;28;20140;-81
2022/03/13 06:46:32;;;;;;;17.55;11.57;;;6.90;98.80;;;;;;5003184;28;20125;-77
2022/03/13 06:48:59;;;;;;;17.20;11.88;;;6.80;99.10;;;;;;4998470;28;20038;-79
2022/03/13 06:51:25;;;;;;;17.75;11.32;;;6.90;98.60;;;;;;4976180;28;20034;-77
2022/03/13 06:53:51;;;;;;;16.80;11.52;;;6.90;99.10;;;;;;4990376;28;20042;-77
2022/03/13 06:56:17;;;;;;;16.60;11.40;;;6.90;98.70;;;;;;5013672;28;20045;-76
2022/03/13 06:58:42;;;;;;;19.17;11.82;;;6.90;98.70;;;;;;4987292;28;22178;-77
2022/03/13 07:01:08;;;;;;;18.42;12.45;;;6.80;99.00;;;;;;5017856;28;20040;-77
2022/03/13 07:03:34;;;;;;;17.85;11.88;;;6.90;98.70;;;;;;4992658;28;20030;-76
2022/03/13 07:06:02;;;;;;;16.73;11.55;;;6.80;98.40;;;;;;5014209;28;20121;-76
2022/03/13 07:08:28;;;;;;;18.00;10.95;;;6.80;98.50;;;;;;4980208;28;20034;-77
2022/03/13 07:10:54;;;;;;;17.33;11.93;;;6.90;98.50;;;;;;4988857;28;21184;-77
2022/03/13 07:13:20;;;;;;;19.77;12.02;;;6.80;98.40;;;;;;4988499;28;20139;-77
2022/03/13 07:15:47;;;;;;;18.50;12.02;;;6.80;98.60;;;;;;4981137;28;20092;-77
2022/03/13 07:18:13;;;;;;;17.42;11.65;;;6.70;98.80;;;;;;4989608;28;20376;-77
2022/03/13 07:20:39;;;;;;;19.17;12.35;;;6.60;99.50;;;;;;4982929;28;20045;-76
2022/03/13 07:23:04;;;;;;;19.63;12.43;;;6.60;99.30;;;;;;4988552;28;20432;-76
2022/03/13 07:25:30;;;;;;;19.13;12.38;;;6.60;99.40;;;;;;4975724;28;20067;-76
2022/03/13 07:27:55;;;;;;;17.48;11.70;;;6.50;99.50;;;;;;4987553;28;20129;-76
2022/03/13 07:30:21;;;;;;;15.95;11.45;;;6.50;99.60;;;;;;5000368;28;20060;-76
2022/03/13 07:32:46;;;;;;;18.35;13.15;;;6.70;99.00;;;;;;4987278;28;20533;-76
2022/03/13 07:35:13;;;;;;;19.02;12.00;;;6.70;98.90;;;;;;4993394;28;20055;-77
2022/03/13 07:37:38;;;;;;;20.30;12.27;;;6.60;99.30;;;;;;5005219;28;20046;-77
2022/03/13 07:40:05;;;;;;;18.95;12.13;;;6.70;99.10;;;;;;5012730;28;20064;-76
2022/03/13 07:42:30;;;;;;;18.83;11.55;;;6.90;98.40;;;;;;5028836;28;20140;-76
2022/03/13 07:44:56;;;;;;;17.42;10.63;;;6.90;98.20;;;;;;5013708;28;20139;-77
2022/03/13 07:47:22;;;;;;;18.92;12.48;;;6.90;98.40;;;;;;5012938;28;20034;-77
2022/03/13 07:49:48;;;;;;;16.80;12.07;;;7.00;98.50;;;;;;5013497;28;20600;-77
2022/03/13 07:52:13;;;;;;;17.08;11.68;;;7.00;98.30;;;;;;4991616;28;20508;-77
2022/03/13 07:54:39;;;;;;;18.40;12.35;;;7.10;99.10;;;;;;4976862;28;20037;-77
2022/03/13 07:57:05;;;;;;;18.45;11.90;;;7.20;99.00;;;;;;4973453;28;20038;-77
2022/03/13 07:59:31;;;;;;;17.85;11.80;;;7.30;98.80;;;;;;4996470;28;20096;-77
2022/03/13 08:01:56;;;;;;;16.75;11.27;;;7.40;98.80;;;;;;5004636;28;20441;-77
2022/03/13 08:04:24;;;;;;;17.80;11.57;;;7.50;98.50;;;;;;4985885;28;20050;-83
2022/03/13 08:06:50;;;;;;;17.35;11.65;;;7.60;98.00;;;;;;4989769;28;20048;-82
2022/03/13 08:09:16;;;;;;;17.75;11.57;;;7.60;97.50;;;;;;4993113;28;20031;-77
2022/03/13 08:11:42;;;;;;;17.23;11.35;;;7.70;97.10;;;;;;4990766;28;20560;-77
2022/03/13 08:14:07;;;;;;;18.08;11.77;;;7.80;96.40;;;;;;4986114;28;20577;-77
2022/03/13 08:16:34;;;;;;;17.45;12.02;;;7.80;95.60;;;;;;4998173;28;20046;-77
2022/03/13 08:19:00;;;;;;;15.77;10.20;;;7.80;95.50;;;;;;5012126;28;20044;-77
2022/03/13 08:21:26;;;;;;;16.38;10.73;;;7.90;95.10;;;;;;4984665;28;20055;-77
2022/03/13 08:23:52;;;;;;;18.85;11.77;;;7.90;94.70;;;;;;5000659;28;21463;-77
2022/03/13 08:26:17;;;;;;;16.63;11.63;;;7.90;95.40;;;;;;4986880;28;20045;-77
2022/03/13 08:28:44;;;;;;;17.83;10.98;;;7.90;95.20;;;;;;4985940;28;20054;-77
2022/03/13 08:31:10;;;;;;;18.83;11.07;;;7.90;95.20;;;;;;4984688;28;20061;-77
2022/03/13 08:33:36;;;;;;;15.40;10.80;;;7.90;94.90;;;;;;4991614;28;20399;-77
2022/03/13 08:36:04;;;;;;;18.10;11.60;;;7.90;95.50;;;;;;4974748;28;20390;-77
2022/03/13 08:38:30;;;;;;;16.85;11.02;;;8.00;95.80;;;;;;5001110;28;20069;-77
2022/03/13 08:40:55;;;;;;;15.65;10.65;;;8.30;94.50;;;;;;5009035;28;20107;-77
2022/03/13 08:43:21;;;;;;;14.82;10.20;;;8.40;93.30;;;;;;5000954;28;20045;-77
2022/03/13 08:45:47;;;;;;;19.73;10.65;;;8.40;93.80;;;;;;5003435;28;20045;-77
2022/03/13 08:48:13;;;;;;;15.90;10.07;;;8.40;92.40;;;;;;5009187;28;20376;-77
2022/03/13 08:50:39;;;;;;;18.65;10.70;;;8.60;92.50;;;;;;5012115;28;20045;-77
2022/03/13 08:53:05;;;;;;;14.77;9.98;;;8.60;92.40;;;;;;5010784;28;20091;-77
2022/03/13 08:55:31;;;;;;;16.98;10.88;;;8.70;91.70;;;;;;4999709;28;20046;-77
2022/03/13 08:57:56;;;;;;;16.50;11.48;;;8.80;91.30;;;;;;4998269;28;20056;-76
2022/03/13 09:00:24;;;;;;;17.58;10.20;;;8.90;92.10;;;;;;5010999;28;20164;-77
2022/03/13 09:02:50;;;;;;;15.07;10.70;;;9.00;91.40;;;;;;5010253;28;20128;-77
2022/03/13 09:05:16;;;;;;;16.50;10.35;;;9.00;91.40;;;;;;4995442;28;20046;-77
2022/03/13 09:07:42;;;;;;;16.45;10.00;;;9.10;92.00;;;;;;5027517;28;20394;-77
2022/03/13 09:10:08;;;;;;;15.50;11.05;;;9.30;90.70;;;;;;4993818;28;20030;-77
2022/03/13 09:12:35;;;;;;;15.63;10.88;;;9.30;90.70;;;;;;4994716;28;20052;-77
2022/03/13 09:15:02;;;;;;;17.05;11.02;;;9.40;91.60;;;;;;4995006;28;20128;-77
2022/03/13 09:17:28;;;;;;;15.85;11.02;;;9.40;89.90;;;;;;4993845;28;20117;-77
2022/03/13 09:19:55;;;;;;;16.83;10.85;;;9.60;91.70;;;;;;5011768;28;20088;-77
2022/03/13 09:22:22;;;;;;;18.30;10.40;;;9.70;91.10;;;;;;4994900;28;20034;-77
2022/03/13 09:24:48;;;;;;;15.35;10.35;;;9.70;90.70;;;;;;4996097;28;20041;-76
2022/03/13 09:27:14;;;;;;;16.58;10.90;;;9.80;90.50;;;;;;5015824;28;20124;-77
2022/03/13 09:29:40;;;;;;;15.15;10.32;;;10.00;86.40;;;;;;5030886;28;20042;-77
2022/03/13 09:32:06;;;;;;;16.33;10.23;;;10.00;82.80;;;;;;5016050;28;20076;-77
2022/03/13 09:34:32;;;;;;;14.93;10.85;;;10.20;86.20;;;;;;5011093;28;20042;-77
2022/03/13 09:36:59;;;;;;;15.27;10.35;;;10.40;81.20;;;;;;5015510;28;20048;-77
2022/03/13 09:39:25;;;;;;;16.58;10.50;;;10.60;79.60;;;;;;5012877;28;20107;-76
2022/03/13 09:41:52;;;;;;;15.88;10.00;;;10.50;79.30;;;;;;5014378;28;20470;-77
2022/03/13 09:44:18;;;;;;;16.15;10.45;;;10.70;77.40;;;;;;5013023;28;20061;-77
2022/03/13 09:46:44;;;;;;;18.38;11.32;;;10.80;75.90;;;;;;4988388;28;20042;-77
2022/03/13 09:49:10;;;;;;;15.50;10.70;;;10.90;79.00;;;;;;5014170;28;20038;-77
2022/03/13 09:51:35;;;;;;;15.80;9.80;;;11.00;79.30;;;;;;4999184;28;20038;-77
2022/03/13 09:54:02;;;;;;;15.38;9.30;;;11.10;76.90;;;;;;5014508;28;20037;-77
2022/03/13 09:56:28;;;;;;;21.08;11.20;;;11.20;74.40;;;;;;5016445;28;20418;-76
2022/03/13 09:58:54;;;;;;;16.10;10.30;;;11.30;71.70;;;;;;5013415;28;20044;-76
2022/03/13 10:01:19;;;;;;;16.17;10.73;;;11.40;73.80;;;;;;4997705;28;20048;-76
2022/03/13 10:03:45;;;;;;;16.88;11.38;;;11.40;75.20;;;;;;5006986;28;20042;-77
2022/03/13 10:06:11;;;;;;;17.67;11.40;;;11.60;74.30;;;;;;5013816;28;20041;-76
2022/03/13 10:08:36;;;;;;;15.02;9.95;;;11.70;72.90;;;;;;5014789;28;20034;-76
2022/03/13 10:11:03;;;;;;;16.77;10.52;;;11.80;73.60;;;;;;5012665;28;20030;-76
2022/03/13 10:13:38;;;;;;;16.45;10.93;;;12.00;69.00;;;;;;5012223;28;20053;-77
2022/03/13 10:16:14;;;;;;;13.98;10.15;;;12.00;71.60;;;;;;5013327;28;20045;-77
2022/03/13 10:18:39;;;;;;;16.10;11.30;;;12.10;69.30;;;;;;5015185;28;20375;-77
2022/03/13 10:21:13;;;;;;;15.00;10.07;;;12.20;66.90;;;;;;5013346;28;20088;-77
2022/03/13 10:23:41;;;;;;;15.88;10.02;;;12.20;69.50;;;;;;5014448;28;20046;-77
2022/03/13 10:26:07;;;;;;;15.30;10.45;;;12.20;69.80;;;;;;5009627;28;20041;-77
2022/03/13 10:28:39;;;;;;;16.55;10.32;;;12.40;69.60;;;;;;5013601;28;20406;-77
2022/03/13 10:31:07;;;;;;;18.70;10.10;;;12.60;67.30;;;;;;4997266;28;20069;-77
2022/03/13 10:33:42;;;;;;;16.20;10.60;;;12.60;68.00;;;;;;5014907;28;20392;-77
2022/03/13 10:36:14;;;;;;;18.42;10.85;;;12.80;65.60;;;;;;4996813;28;20041;-77
2022/03/13 10:38:41;;;;;;;17.77;11.25;;;12.70;64.00;;;;;;5006403;28;20049;-77
2022/03/13 10:41:10;;;;;;;17.48;11.00;;;12.70;65.80;;;;;;4991597;28;20093;-77
2022/03/13 10:43:55;;;;;;;15.77;10.70;;;12.80;66.90;;;;;;5007927;28;20121;-77
2022/03/13 10:46:25;;;;;;;16.20;10.73;;;13.00;64.60;;;;;;5007889;28;20053;-77
2022/03/13 10:48:52;;;;;;;15.27;10.40;;;13.10;64.70;;;;;;5011156;28;20038;-77
2022/03/13 10:51:45;;;;;;;15.60;10.73;;;13.10;64.20;;;;;;5030364;28;20042;-77
2022/03/13 10:54:29;;;;;;;15.63;10.48;;;13.00;64.10;;;;;;5030406;28;20482;-77
2022/03/13 10:57:09;;;;;;;15.57;10.90;;;13.00;64.20;;;;;;5010545;28;20134;-77
2022/03/13 10:59:35;;;;;;;17.23;11.45;;;13.00;64.80;;;;;;4997091;28;20056;-77
2022/03/13 11:02:14;;;;;;;16.30;10.82;;;13.00;65.40;;;;;;5012859;28;20415;-77
2022/03/13 11:04:50;;;;;;;15.05;10.02;;;13.10;63.20;;;;;;4997115;28;20096;-77
2022/03/13 11:07:16;;;;;;;15.90;10.90;;;13.20;63.50;;;;;;5037561;28;20065;-77
2022/03/13 11:09:42;;;;;;;15.07;10.07;;;13.20;63.50;;;;;;5009922;28;20514;-77
2022/03/13 11:12:10;;;;;;;16.63;10.85;;;13.30;64.10;;;;;;5013667;28;20088;-77
2022/03/13 11:14:36;;;;;;;16.17;10.82;;;13.50;62.90;;;;;;5012545;28;20049;-77
2022/03/13 11:17:03;;;;;;;18.17;11.68;;;13.50;64.00;;;;;;4994872;28;20034;-77
2022/03/13 11:19:30;;;;;;;16.25;10.10;;;13.60;63.70;;;;;;5012399;28;20038;-77
2022/03/13 11:21:55;;;;;;;17.00;12.15;;;13.80;62.70;;;;;;4997505;28;20038;-77
2022/03/13 11:24:23;;;;;;;16.58;10.95;;;13.90;60.50;;;;;;5013237;28;20112;-77
2022/03/13 11:26:51;;;;;;;15.25;10.10;;;13.90;60.20;;;;;;5002687;28;20097;-77
2022/03/13 11:29:41;;;;;;;17.23;11.05;;;13.90;61.20;;;;;;4977737;28;20038;-77
2022/03/13 11:32:34;;;;;;;15.57;10.15;;;14.00;60.40;;;;;;4979356;28;20038;-77
2022/03/13 11:35:18;;;;;;;15.10;10.32;;;14.00;60.10;;;;;;5008268;28;20080;-77
2022/03/13 11:38:07;;;;;;;15.73;10.15;;;14.00;59.30;;;;;;5010833;28;20049;-77
2022/03/13 11:40:38;;;;;;;15.57;10.63;;;14.00;56.40;;;;;;5002015;28;20060;-77
2022/03/13 11:43:12;;;;;;;14.75;10.13;;;14.10;60.00;;;;;;4997069;28;20076;-77
2022/03/13 11:46:00;;;;;;;16.52;10.93;;;14.10;60.30;;;;;;5011646;28;20041;-77
2022/03/13 11:48:25;;;;;;;15.50;10.52;;;14.20;59.20;;;;;;5000207;28;20510;-77
2022/03/13 11:50:58;;;;;;;16.40;10.98;;;14.30;58.30;;;;;;5012961;28;20034;-77
2022/03/13 11:53:29;;;;;;;16.75;10.60;;;14.30;59.10;;;;;;4993262;28;20037;-77
2022/03/13 11:55:57;;;;;;;15.48;9.80;;;14.40;58.10;;;;;;5011555;28;20127;-77
2022/03/13 11:58:41;;;;;;;15.93;10.75;;;14.40;57.20;;;;;;5011619;28;20083;-77
2022/03/13 12:01:15;;;;;;;15.27;10.73;;;14.50;57.70;;;;;;5012947;28;20050;-77
2022/03/13 12:04:13;;;;;;;16.70;11.32;;;14.40;57.20;;;;;;5010761;28;20042;-77
2022/03/13 12:06:43;;;;;;;15.50;10.07;;;14.40;56.30;;;;;;5012776;28;20046;-77
2022/03/13 12:09:11;;;;;;;15.63;10.30;;;14.40;57.40;;;;;;4994017;28;20561;-77
2022/03/13 12:11:38;;;;;;;15.55;10.90;;;14.50;55.90;;;;;;4992258;28;20042;-77
2022/03/13 12:14:09;;;;;;;16.40;10.25;;;14.50;56.10;;;;;;5000048;28;20099;-77
2022/03/13 12:16:35;;;;;;;16.63;10.95;;;14.40;55.50;;;;;;5012254;28;20502;-77
2022/03/13 12:19:01;;;;;;;17.98;11.35;;;14.40;55.80;;;;;;5011828;28;20202;-78
2022/03/13 12:21:26;;;;;;;16.08;10.43;;;14.40;56.70;;;;;;5007488;28;20129;-77
2022/03/13 12:23:52;;;;;;;16.50;10.93;;;14.40;56.80;;;;;;4991081;28;20427;-77
2022/03/13 12:26:38;;;;;;;15.48;10.65;;;14.50;54.70;;;;;;4993092;28;20034;-77
2022/03/13 12:29:04;;;;;;;17.38;11.13;;;14.60;54.70;;;;;;4993041;28;20042;-77
2022/03/13 12:31:39;;;;;;;16.33;11.00;;;14.70;54.50;;;;;;4990970;28;20514;-77
2022/03/13 12:34:04;;;;;;;18.75;10.55;;;14.60;55.00;;;;;;4992457;28;20050;-77
2022/03/13 12:36:35;;;;;;;16.52;10.75;;;14.60;55.00;;;;;;4999251;28;20049;-77
2022/03/13 12:39:02;;;;;;;16.05;10.57;;;14.70;53.90;;;;;;4991129;28;20056;-77